sensor_id;sensor_type;location;lat;lon;timestamp;P1;durP1;ratioP1;P2;durP2;ratioP2
25153;SDS011;47555;51.038;6.280;2023-07-22T00:00:49;11.93;;;5.85;;
25153;SDS011;47555;51.038;6.280;2023-07-22T00:03:14;10.68;;;5.53;;
25153;SDS011;47555;51.038;6.280;2023-07-22T00:05:40;9.30;;;5.55;;
25153;SDS011;47555;51.038;6.280;2023-07-22T00:08:07;9.25;;;5.32;;
25153;SDS011;47555;51.038;6.280;2023-07-22T00:10:32;9.82;;;6.25;;
25153;SDS011;47555;51.038;6.280;2023-07-22T00:12:58;10.98;;;6.40;;
25153;SDS011;47555;51.038;6.280;2023-07-22T00:15:23;10.45;;;5.63;;
25153;SDS011;47555;51.038;6.280;2023-07-22T00:17:50;10.43;;;5.35;;
25153;SDS011;47555;51.038;6.280;2023-07-22T00:20:16;10.00;;;4.93;;
25153;SDS011;47555;51.038;6.280;2023-07-22T00:22:45;10.45;;;5.90;;
25153;SDS011;47555;51.038;6.280;2023-07-22T00:25:11;9.80;;;5.45;;
25153;SDS011;47555;51.038;6.280;2023-07-22T00:27:38;8.73;;;5.03;;
25153;SDS011;47555;51.038;6.280;2023-07-22T00:30:07;9.77;;;5.25;;
25153;SDS011;47555;51.038;6.280;2023-07-22T00:32:34;9.02;;;5.03;;
25153;SDS011;47555;51.038;6.280;2023-07-22T00:35:04;8.65;;;5.05;;
25153;SDS011;47555;51.038;6.280;2023-07-22T00:37:30;10.88;;;5.18;;
25153;SDS011;47555;51.038;6.280;2023-07-22T00:39:56;8.18;;;5.10;;
25153;SDS011;47555;51.038;6.280;2023-07-22T00:42:21;8.75;;;4.97;;
25153;SDS011;47555;51.038;6.280;2023-07-22T00:44:47;8.68;;;4.63;;
25153;SDS011;47555;51.038;6.280;2023-07-22T00:47:12;7.63;;;4.60;;
25153;SDS011;47555;51.038;6.280;2023-07-22T00:49:38;9.18;;;4.80;;
25153;SDS011;47555;51.038;6.280;2023-07-22T00:52:04;7.90;;;4.55;;
25153;SDS011;47555;51.038;6.280;2023-07-22T00:54:30;9.38;;;5.10;;
25153;SDS011;47555;51.038;6.280;2023-07-22T00:56:56;10.07;;;5.53;;
25153;SDS011;47555;51.038;6.280;2023-07-22T00:59:22;9.07;;;5.38;;
25153;SDS011;47555;51.038;6.280;2023-07-22T01:01:49;8.32;;;4.78;;
25153;SDS011;47555;51.038;6.280;2023-07-22T01:04:14;9.57;;;5.10;;
25153;SDS011;47555;51.038;6.280;2023-07-22T01:06:42;8.38;;;4.95;;
25153;SDS011;47555;51.038;6.280;2023-07-22T01:09:09;9.68;;;5.25;;
25153;SDS011;47555;51.038;6.280;2023-07-22T01:11:34;10.32;;;5.75;;
25153;SDS011;47555;51.038;6.280;2023-07-22T01:14:00;10.02;;;5.47;;
25153;SDS011;47555;51.038;6.280;2023-07-22T01:16:26;9.68;;;5.93;;
25153;SDS011;47555;51.038;6.280;2023-07-22T01:18:53;7.95;;;4.95;;
25153;SDS011;47555;51.038;6.280;2023-07-22T01:21:20;10.57;;;4.57;;
25153;SDS011;47555;51.038;6.280;2023-07-22T01:23:49;8.60;;;5.47;;
25153;SDS011;47555;51.038;6.280;2023-07-22T01:26:15;10.68;;;4.80;;
25153;SDS011;47555;51.038;6.280;2023-07-22T01:28:41;10.90;;;5.28;;
25153;SDS011;47555;51.038;6.280;2023-07-22T01:31:07;8.68;;;5.35;;
25153;SDS011;47555;51.038;6.280;2023-07-22T01:33:33;11.23;;;5.90;;
25153;SDS011;47555;51.038;6.280;2023-07-22T01:35:59;10.85;;;6.00;;
25153;SDS011;47555;51.038;6.280;2023-07-22T01:38:25;8.75;;;5.28;;
25153;SDS011;47555;51.038;6.280;2023-07-22T01:40:51;10.75;;;5.47;;
25153;SDS011;47555;51.038;6.280;2023-07-22T01:43:16;9.48;;;5.30;;
25153;SDS011;47555;51.038;6.280;2023-07-22T01:45:42;10.77;;;5.63;;
25153;SDS011;47555;51.038;6.280;2023-07-22T01:48:08;11.20;;;5.78;;
25153;SDS011;47555;51.038;6.280;2023-07-22T01:50:33;9.45;;;5.38;;
25153;SDS011;47555;51.038;6.280;2023-07-22T01:52:59;10.25;;;5.63;;
25153;SDS011;47555;51.038;6.280;2023-07-22T01:55:25;8.10;;;5.00;;
25153;SDS011;47555;51.038;6.280;2023-07-22T01:57:50;11.02;;;5.68;;
25153;SDS011;47555;51.038;6.280;2023-07-22T02:00:16;8.52;;;5.28;;
25153;SDS011;47555;51.038;6.280;2023-07-22T02:02:42;9.15;;;5.43;;
25153;SDS011;47555;51.038;6.280;2023-07-22T02:05:08;8.95;;;5.30;;
25153;SDS011;47555;51.038;6.280;2023-07-22T02:07:43;10.43;;;5.57;;
25153;SDS011;47555;51.038;6.280;2023-07-22T02:10:09;10.43;;;5.20;;
25153;SDS011;47555;51.038;6.280;2023-07-22T02:12:38;9.80;;;5.32;;
25153;SDS011;47555;51.038;6.280;2023-07-22T02:15:04;11.15;;;6.28;;
25153;SDS011;47555;51.038;6.280;2023-07-22T02:17:30;8.43;;;5.10;;
25153;SDS011;47555;51.038;6.280;2023-07-22T02:19:56;10.43;;;5.72;;
25153;SDS011;47555;51.038;6.280;2023-07-22T02:22:23;11.32;;;6.25;;
25153;SDS011;47555;51.038;6.280;2023-07-22T02:24:48;13.40;;;6.57;;
25153;SDS011;47555;51.038;6.280;2023-07-22T02:27:14;9.73;;;5.40;;
25153;SDS011;47555;51.038;6.280;2023-07-22T02:29:45;9.25;;;5.35;;
25153;SDS011;47555;51.038;6.280;2023-07-22T02:32:11;8.88;;;4.90;;
25153;SDS011;47555;51.038;6.280;2023-07-22T02:34:37;9.02;;;5.60;;
25153;SDS011;47555;51.038;6.280;2023-07-22T02:37:03;8.55;;;5.18;;
25153;SDS011;47555;51.038;6.280;2023-07-22T02:39:29;9.90;;;5.40;;
25153;SDS011;47555;51.038;6.280;2023-07-22T02:41:54;10.07;;;5.35;;
25153;SDS011;47555;51.038;6.280;2023-07-22T02:44:20;10.27;;;5.50;;
25153;SDS011;47555;51.038;6.280;2023-07-22T02:46:45;10.02;;;5.82;;
25153;SDS011;47555;51.038;6.280;2023-07-22T02:49:11;9.82;;;5.78;;
25153;SDS011;47555;51.038;6.280;2023-07-22T02:51:37;9.75;;;5.78;;
25153;SDS011;47555;51.038;6.280;2023-07-22T02:54:02;9.65;;;5.80;;
25153;SDS011;47555;51.038;6.280;2023-07-22T02:56:28;10.18;;;4.95;;
25153;SDS011;47555;51.038;6.280;2023-07-22T02:58:54;9.25;;;5.70;;
25153;SDS011;47555;51.038;6.280;2023-07-22T03:01:19;10.80;;;5.45;;
25153;SDS011;47555;51.038;6.280;2023-07-22T03:03:45;14.45;;;6.75;;
25153;SDS011;47555;51.038;6.280;2023-07-22T03:06:10;9.15;;;5.25;;
25153;SDS011;47555;51.038;6.280;2023-07-22T03:08:36;10.05;;;5.30;;
25153;SDS011;47555;51.038;6.280;2023-07-22T03:11:02;10.20;;;5.32;;
25153;SDS011;47555;51.038;6.280;2023-07-22T03:13:38;10.52;;;5.10;;
25153;SDS011;47555;51.038;6.280;2023-07-22T03:16:03;11.07;;;5.10;;
25153;SDS011;47555;51.038;6.280;2023-07-22T03:18:29;8.48;;;5.22;;
25153;SDS011;47555;51.038;6.280;2023-07-22T03:20:56;13.30;;;5.45;;
25153;SDS011;47555;51.038;6.280;2023-07-22T03:23:22;11.40;;;5.93;;
25153;SDS011;47555;51.038;6.280;2023-07-22T03:25:48;9.68;;;5.40;;
25153;SDS011;47555;51.038;6.280;2023-07-22T03:28:13;12.20;;;5.72;;
25153;SDS011;47555;51.038;6.280;2023-07-22T03:30:42;11.65;;;5.88;;
25153;SDS011;47555;51.038;6.280;2023-07-22T03:33:07;9.52;;;5.25;;
25153;SDS011;47555;51.038;6.280;2023-07-22T03:35:40;11.50;;;6.13;;
25153;SDS011;47555;51.038;6.280;2023-07-22T03:38:05;9.82;;;5.43;;
25153;SDS011;47555;51.038;6.280;2023-07-22T03:40:31;10.32;;;5.47;;
25153;SDS011;47555;51.038;6.280;2023-07-22T03:42:57;10.35;;;5.80;;
25153;SDS011;47555;51.038;6.280;2023-07-22T03:45:23;11.75;;;6.03;;
25153;SDS011;47555;51.038;6.280;2023-07-22T03:47:52;9.27;;;5.80;;
25153;SDS011;47555;51.038;6.280;2023-07-22T03:50:21;10.10;;;6.00;;
25153;SDS011;47555;51.038;6.280;2023-07-22T03:52:46;12.25;;;6.43;;
25153;SDS011;47555;51.038;6.280;2023-07-22T03:55:12;10.35;;;5.57;;
25153;SDS011;47555;51.038;6.280;2023-07-22T03:57:38;9.52;;;5.53;;
25153;SDS011;47555;51.038;6.280;2023-07-22T04:00:03;9.90;;;5.63;;
25153;SDS011;47555;51.038;6.280;2023-07-22T04:02:33;12.43;;;5.90;;
25153;SDS011;47555;51.038;6.280;2023-07-22T04:04:59;11.00;;;5.40;;
25153;SDS011;47555;51.038;6.280;2023-07-22T04:07:25;9.25;;;5.53;;
25153;SDS011;47555;51.038;6.280;2023-07-22T04:09:50;11.75;;;5.95;;
25153;SDS011;47555;51.038;6.280;2023-07-22T04:12:16;8.93;;;5.65;;
25153;SDS011;47555;51.038;6.280;2023-07-22T04:14:42;12.05;;;5.80;;
25153;SDS011;47555;51.038;6.280;2023-07-22T04:17:07;8.23;;;5.15;;
25153;SDS011;47555;51.038;6.280;2023-07-22T04:19:33;10.02;;;5.40;;
25153;SDS011;47555;51.038;6.280;2023-07-22T04:21:59;9.75;;;5.82;;
25153;SDS011;47555;51.038;6.280;2023-07-22T04:24:32;11.07;;;5.90;;
25153;SDS011;47555;51.038;6.280;2023-07-22T04:26:57;10.07;;;6.28;;
25153;SDS011;47555;51.038;6.280;2023-07-22T04:29:24;12.20;;;5.68;;
25153;SDS011;47555;51.038;6.280;2023-07-22T04:31:51;12.60;;;5.50;;
25153;SDS011;47555;51.038;6.280;2023-07-22T04:34:16;9.18;;;5.10;;
25153;SDS011;47555;51.038;6.280;2023-07-22T04:36:42;9.93;;;5.50;;
25153;SDS011;47555;51.038;6.280;2023-07-22T04:39:08;9.52;;;5.38;;
25153;SDS011;47555;51.038;6.280;2023-07-22T04:41:34;9.27;;;5.40;;
25153;SDS011;47555;51.038;6.280;2023-07-22T04:43:59;9.13;;;5.88;;
25153;SDS011;47555;51.038;6.280;2023-07-22T04:46:25;9.35;;;5.57;;
25153;SDS011;47555;51.038;6.280;2023-07-22T04:48:54;11.38;;;5.78;;
25153;SDS011;47555;51.038;6.280;2023-07-22T04:51:21;9.63;;;5.88;;
25153;SDS011;47555;51.038;6.280;2023-07-22T04:53:46;8.07;;;5.68;;
25153;SDS011;47555;51.038;6.280;2023-07-22T04:56:12;12.02;;;5.95;;
25153;SDS011;47555;51.038;6.280;2023-07-22T04:58:37;12.50;;;5.28;;
25153;SDS011;47555;51.038;6.280;2023-07-22T05:01:04;10.70;;;5.95;;
25153;SDS011;47555;51.038;6.280;2023-07-22T05:03:30;10.00;;;5.82;;
25153;SDS011;47555;51.038;6.280;2023-07-22T05:05:55;9.85;;;6.13;;
25153;SDS011;47555;51.038;6.280;2023-07-22T05:08:22;11.68;;;6.32;;
25153;SDS011;47555;51.038;6.280;2023-07-22T05:10:48;11.00;;;5.97;;
25153;SDS011;47555;51.038;6.280;2023-07-22T05:13:14;10.43;;;5.50;;
25153;SDS011;47555;51.038;6.280;2023-07-22T05:15:39;10.40;;;6.60;;
25153;SDS011;47555;51.038;6.280;2023-07-22T05:18:05;11.18;;;5.68;;
25153;SDS011;47555;51.038;6.280;2023-07-22T05:20:30;12.00;;;5.97;;
25153;SDS011;47555;51.038;6.280;2023-07-22T05:22:56;12.77;;;7.07;;
25153;SDS011;47555;51.038;6.280;2023-07-22T05:25:21;12.10;;;6.47;;
25153;SDS011;47555;51.038;6.280;2023-07-22T05:27:47;11.73;;;6.22;;
25153;SDS011;47555;51.038;6.280;2023-07-22T05:30:13;11.93;;;5.97;;
25153;SDS011;47555;51.038;6.280;2023-07-22T05:32:38;9.90;;;6.22;;
25153;SDS011;47555;51.038;6.280;2023-07-22T05:35:04;12.20;;;5.90;;
25153;SDS011;47555;51.038;6.280;2023-07-22T05:37:30;12.10;;;6.45;;
25153;SDS011;47555;51.038;6.280;2023-07-22T05:39:56;6.95;;;5.13;;
25153;SDS011;47555;51.038;6.280;2023-07-22T05:42:21;9.85;;;5.93;;
25153;SDS011;47555;51.038;6.280;2023-07-22T05:44:47;9.55;;;5.57;;
25153;SDS011;47555;51.038;6.280;2023-07-22T05:47:13;10.57;;;5.72;;
25153;SDS011;47555;51.038;6.280;2023-07-22T05:49:39;11.23;;;6.53;;
25153;SDS011;47555;51.038;6.280;2023-07-22T05:52:05;10.10;;;6.50;;
25153;SDS011;47555;51.038;6.280;2023-07-22T05:54:31;11.38;;;6.03;;
25153;SDS011;47555;51.038;6.280;2023-07-22T05:56:57;9.07;;;6.10;;
25153;SDS011;47555;51.038;6.280;2023-07-22T05:59:22;9.23;;;5.90;;
25153;SDS011;47555;51.038;6.280;2023-07-22T06:01:48;11.90;;;5.90;;
25153;SDS011;47555;51.038;6.280;2023-07-22T06:04:13;12.02;;;6.07;;
25153;SDS011;47555;51.038;6.280;2023-07-22T06:06:39;9.15;;;5.38;;
25153;SDS011;47555;51.038;6.280;2023-07-22T06:09:04;11.32;;;5.93;;
25153;SDS011;47555;51.038;6.280;2023-07-22T06:11:30;11.10;;;6.45;;
25153;SDS011;47555;51.038;6.280;2023-07-22T06:13:56;10.07;;;5.80;;
25153;SDS011;47555;51.038;6.280;2023-07-22T06:16:24;12.45;;;6.53;;
25153;SDS011;47555;51.038;6.280;2023-07-22T06:18:50;10.40;;;6.35;;
25153;SDS011;47555;51.038;6.280;2023-07-22T06:21:16;9.63;;;5.55;;
25153;SDS011;47555;51.038;6.280;2023-07-22T06:23:41;11.60;;;6.85;;
25153;SDS011;47555;51.038;6.280;2023-07-22T06:26:07;11.70;;;6.45;;
25153;SDS011;47555;51.038;6.280;2023-07-22T06:28:32;12.30;;;6.63;;
25153;SDS011;47555;51.038;6.280;2023-07-22T06:30:58;11.27;;;6.32;;
25153;SDS011;47555;51.038;6.280;2023-07-22T06:33:23;13.52;;;6.63;;
25153;SDS011;47555;51.038;6.280;2023-07-22T06:35:49;11.30;;;5.82;;
25153;SDS011;47555;51.038;6.280;2023-07-22T06:38:15;10.88;;;6.85;;
25153;SDS011;47555;51.038;6.280;2023-07-22T06:40:40;12.13;;;7.40;;
25153;SDS011;47555;51.038;6.280;2023-07-22T06:43:09;11.20;;;6.82;;
25153;SDS011;47555;51.038;6.280;2023-07-22T06:45:34;13.90;;;6.88;;
25153;SDS011;47555;51.038;6.280;2023-07-22T06:48:00;12.75;;;6.47;;
25153;SDS011;47555;51.038;6.280;2023-07-22T06:50:25;11.73;;;6.38;;
25153;SDS011;47555;51.038;6.280;2023-07-22T06:52:51;12.50;;;6.70;;
25153;SDS011;47555;51.038;6.280;2023-07-22T06:55:16;13.20;;;7.00;;
25153;SDS011;47555;51.038;6.280;2023-07-22T06:57:42;12.55;;;6.03;;
25153;SDS011;47555;51.038;6.280;2023-07-22T07:00:08;14.75;;;7.00;;
25153;SDS011;47555;51.038;6.280;2023-07-22T07:02:35;11.25;;;5.93;;
25153;SDS011;47555;51.038;6.280;2023-07-22T07:05:01;10.23;;;5.82;;
25153;SDS011;47555;51.038;6.280;2023-07-22T07:07:29;11.63;;;6.90;;
25153;SDS011;47555;51.038;6.280;2023-07-22T07:09:54;11.27;;;6.32;;
25153;SDS011;47555;51.038;6.280;2023-07-22T07:12:20;9.88;;;5.35;;
25153;SDS011;47555;51.038;6.280;2023-07-22T07:14:45;13.18;;;6.57;;
25153;SDS011;47555;51.038;6.280;2023-07-22T07:17:11;9.70;;;6.25;;
25153;SDS011;47555;51.038;6.280;2023-07-22T07:19:36;11.02;;;6.18;;
25153;SDS011;47555;51.038;6.280;2023-07-22T07:22:02;12.23;;;6.18;;
25153;SDS011;47555;51.038;6.280;2023-07-22T07:24:28;10.07;;;6.05;;
25153;SDS011;47555;51.038;6.280;2023-07-22T07:26:53;11.57;;;6.03;;
25153;SDS011;47555;51.038;6.280;2023-07-22T07:29:19;11.18;;;6.38;;
25153;SDS011;47555;51.038;6.280;2023-07-22T07:31:44;13.13;;;6.57;;
25153;SDS011;47555;51.038;6.280;2023-07-22T07:34:10;11.57;;;6.57;;
25153;SDS011;47555;51.038;6.280;2023-07-22T07:36:35;8.77;;;4.72;;
25153;SDS011;47555;51.038;6.280;2023-07-22T07:39:01;8.98;;;5.45;;
25153;SDS011;47555;51.038;6.280;2023-07-22T07:41:28;8.10;;;5.00;;
25153;SDS011;47555;51.038;6.280;2023-07-22T07:43:53;12.45;;;5.97;;
25153;SDS011;47555;51.038;6.280;2023-07-22T07:46:20;8.30;;;5.25;;
25153;SDS011;47555;51.038;6.280;2023-07-22T07:51:19;8.52;;;5.10;;
25153;SDS011;47555;51.038;6.280;2023-07-22T07:53:46;7.90;;;4.97;;
25153;SDS011;47555;51.038;6.280;2023-07-22T07:56:12;9.63;;;5.07;;
25153;SDS011;47555;51.038;6.280;2023-07-22T07:58:38;8.27;;;5.68;;
25153;SDS011;47555;51.038;6.280;2023-07-22T08:01:05;8.00;;;4.90;;
25153;SDS011;47555;51.038;6.280;2023-07-22T08:03:31;7.18;;;4.55;;
25153;SDS011;47555;51.038;6.280;2023-07-22T08:05:58;8.50;;;5.53;;
25153;SDS011;47555;51.038;6.280;2023-07-22T08:08:24;6.35;;;4.65;;
25153;SDS011;47555;51.038;6.280;2023-07-22T08:10:59;6.10;;;4.57;;
25153;SDS011;47555;51.038;6.280;2023-07-22T08:13:25;7.90;;;4.25;;
25153;SDS011;47555;51.038;6.280;2023-07-22T08:15:52;7.15;;;3.60;;
25153;SDS011;47555;51.038;6.280;2023-07-22T08:18:20;4.50;;;3.60;;
25153;SDS011;47555;51.038;6.280;2023-07-22T08:20:46;5.90;;;3.60;;
25153;SDS011;47555;51.038;6.280;2023-07-22T08:23:12;5.50;;;3.60;;
25153;SDS011;47555;51.038;6.280;2023-07-22T08:25:38;4.90;;;3.58;;
25153;SDS011;47555;51.038;6.280;2023-07-22T08:28:04;6.25;;;3.65;;
25153;SDS011;47555;51.038;6.280;2023-07-22T08:30:29;4.72;;;3.25;;
25153;SDS011;47555;51.038;6.280;2023-07-22T08:32:58;3.85;;;2.80;;
25153;SDS011;47555;51.038;6.280;2023-07-22T08:35:23;5.45;;;3.60;;
25153;SDS011;47555;51.038;6.280;2023-07-22T08:37:49;4.43;;;3.03;;
25153;SDS011;47555;51.038;6.280;2023-07-22T08:40:15;6.00;;;3.35;;
25153;SDS011;47555;51.038;6.280;2023-07-22T08:42:41;4.82;;;3.45;;
25153;SDS011;47555;51.038;6.280;2023-07-22T08:45:08;5.07;;;3.30;;
25153;SDS011;47555;51.038;6.280;2023-07-22T08:47:35;6.00;;;3.58;;
25153;SDS011;47555;51.038;6.280;2023-07-22T08:50:07;6.20;;;3.63;;
25153;SDS011;47555;51.038;6.280;2023-07-22T08:52:33;5.32;;;3.65;;
25153;SDS011;47555;51.038;6.280;2023-07-22T08:54:59;4.95;;;3.30;;
25153;SDS011;47555;51.038;6.280;2023-07-22T08:57:29;4.80;;;3.28;;
25153;SDS011;47555;51.038;6.280;2023-07-22T08:59:56;4.63;;;3.30;;
25153;SDS011;47555;51.038;6.280;2023-07-22T09:02:22;5.47;;;3.58;;
25153;SDS011;47555;51.038;6.280;2023-07-22T09:04:49;5.05;;;3.25;;
25153;SDS011;47555;51.038;6.280;2023-07-22T09:07:15;4.40;;;3.30;;
25153;SDS011;47555;51.038;6.280;2023-07-22T09:09:41;4.32;;;3.20;;
25153;SDS011;47555;51.038;6.280;2023-07-22T09:12:10;4.57;;;3.22;;
25153;SDS011;47555;51.038;6.280;2023-07-22T09:14:36;7.40;;;3.35;;
25153;SDS011;47555;51.038;6.280;2023-07-22T09:17:04;3.85;;;2.85;;
25153;SDS011;47555;51.038;6.280;2023-07-22T09:19:30;4.18;;;2.95;;
25153;SDS011;47555;51.038;6.280;2023-07-22T09:21:56;4.57;;;3.25;;
25153;SDS011;47555;51.038;6.280;2023-07-22T09:24:24;3.40;;;2.58;;
25153;SDS011;47555;51.038;6.280;2023-07-22T09:26:51;5.10;;;2.75;;
25153;SDS011;47555;51.038;6.280;2023-07-22T09:29:17;5.53;;;3.35;;
25153;SDS011;47555;51.038;6.280;2023-07-22T09:31:49;5.88;;;3.08;;
25153;SDS011;47555;51.038;6.280;2023-07-22T09:34:17;3.50;;;2.63;;
25153;SDS011;47555;51.038;6.280;2023-07-22T09:36:50;4.70;;;3.00;;
25153;SDS011;47555;51.038;6.280;2023-07-22T09:39:19;4.13;;;3.20;;
25153;SDS011;47555;51.038;6.280;2023-07-22T09:41:46;4.05;;;2.80;;
25153;SDS011;47555;51.038;6.280;2023-07-22T09:44:12;5.38;;;2.83;;
25153;SDS011;47555;51.038;6.280;2023-07-22T09:46:37;4.50;;;2.65;;
25153;SDS011;47555;51.038;6.280;2023-07-22T09:49:06;4.38;;;2.60;;
25153;SDS011;47555;51.038;6.280;2023-07-22T09:51:37;6.32;;;2.80;;
25153;SDS011;47555;51.038;6.280;2023-07-22T09:54:07;5.20;;;3.00;;
25153;SDS011;47555;51.038;6.280;2023-07-22T09:56:42;4.88;;;2.55;;
25153;SDS011;47555;51.038;6.280;2023-07-22T09:59:09;3.10;;;2.47;;
25153;SDS011;47555;51.038;6.280;2023-07-22T10:01:37;4.57;;;2.70;;
25153;SDS011;47555;51.038;6.280;2023-07-22T10:04:03;5.72;;;2.78;;
25153;SDS011;47555;51.038;6.280;2023-07-22T10:06:30;4.25;;;2.33;;
25153;SDS011;47555;51.038;6.280;2023-07-22T10:08:57;4.97;;;2.63;;
25153;SDS011;47555;51.038;6.280;2023-07-22T10:11:33;4.45;;;2.47;;
25153;SDS011;47555;51.038;6.280;2023-07-22T10:14:01;3.90;;;2.75;;
25153;SDS011;47555;51.038;6.280;2023-07-22T10:16:27;3.30;;;2.50;;
25153;SDS011;47555;51.038;6.280;2023-07-22T10:18:54;4.20;;;2.90;;
25153;SDS011;47555;51.038;6.280;2023-07-22T10:21:21;5.57;;;3.08;;
25153;SDS011;47555;51.038;6.280;2023-07-22T10:23:47;5.25;;;2.83;;
25153;SDS011;47555;51.038;6.280;2023-07-22T10:26:17;5.03;;;3.05;;
25153;SDS011;47555;51.038;6.280;2023-07-22T10:28:46;4.47;;;2.70;;
25153;SDS011;47555;51.038;6.280;2023-07-22T10:31:15;3.75;;;2.88;;
25153;SDS011;47555;51.038;6.280;2023-07-22T10:33:44;4.25;;;3.03;;
25153;SDS011;47555;51.038;6.280;2023-07-22T10:36:16;4.15;;;2.72;;
25153;SDS011;47555;51.038;6.280;2023-07-22T10:38:42;3.88;;;2.70;;
25153;SDS011;47555;51.038;6.280;2023-07-22T10:41:15;5.35;;;2.60;;
25153;SDS011;47555;51.038;6.280;2023-07-22T10:43:42;6.63;;;3.35;;
25153;SDS011;47555;51.038;6.280;2023-07-22T10:46:20;3.55;;;2.67;;
25153;SDS011;47555;51.038;6.280;2023-07-22T10:49:06;7.25;;;3.60;;
25153;SDS011;47555;51.038;6.280;2023-07-22T10:54:40;5.85;;;3.28;;
25153;SDS011;47555;51.038;6.280;2023-07-22T10:59:51;5.80;;;3.10;;
25153;SDS011;47555;51.038;6.280;2023-07-22T11:02:27;3.85;;;3.30;;
25153;SDS011;47555;51.038;6.280;2023-07-22T11:04:57;4.93;;;2.72;;
25153;SDS011;47555;51.038;6.280;2023-07-22T11:07:33;4.07;;;2.75;;
25153;SDS011;47555;51.038;6.280;2023-07-22T11:10:18;4.10;;;2.85;;
25153;SDS011;47555;51.038;6.280;2023-07-22T11:12:44;6.85;;;2.92;;
25153;SDS011;47555;51.038;6.280;2023-07-22T11:15:10;4.45;;;2.97;;
25153;SDS011;47555;51.038;6.280;2023-07-22T11:17:39;5.15;;;2.90;;
25153;SDS011;47555;51.038;6.280;2023-07-22T11:20:05;4.22;;;3.00;;
25153;SDS011;47555;51.038;6.280;2023-07-22T11:22:30;3.22;;;2.63;;
25153;SDS011;47555;51.038;6.280;2023-07-22T11:24:56;2.97;;;2.60;;
25153;SDS011;47555;51.038;6.280;2023-07-22T11:27:25;2.88;;;2.30;;
25153;SDS011;47555;51.038;6.280;2023-07-22T11:29:51;2.50;;;2.30;;
25153;SDS011;47555;51.038;6.280;2023-07-22T11:32:17;5.07;;;2.40;;
25153;SDS011;47555;51.038;6.280;2023-07-22T11:34:46;3.33;;;2.42;;
25153;SDS011;47555;51.038;6.280;2023-07-22T11:37:11;2.50;;;2.13;;
25153;SDS011;47555;51.038;6.280;2023-07-22T11:39:38;3.65;;;2.30;;
25153;SDS011;47555;51.038;6.280;2023-07-22T11:42:04;3.78;;;2.17;;
25153;SDS011;47555;51.038;6.280;2023-07-22T11:44:30;2.72;;;2.05;;
25153;SDS011;47555;51.038;6.280;2023-07-22T11:47:06;3.17;;;2.35;;
25153;SDS011;47555;51.038;6.280;2023-07-22T11:49:37;5.07;;;2.47;;
25153;SDS011;47555;51.038;6.280;2023-07-22T11:52:05;3.67;;;2.50;;
25153;SDS011;47555;51.038;6.280;2023-07-22T11:54:44;2.78;;;2.05;;
25153;SDS011;47555;51.038;6.280;2023-07-22T11:59:43;4.05;;;2.40;;
25153;SDS011;47555;51.038;6.280;2023-07-22T12:02:13;3.15;;;2.50;;
25153;SDS011;47555;51.038;6.280;2023-07-22T12:04:41;3.03;;;2.60;;
25153;SDS011;47555;51.038;6.280;2023-07-22T12:07:20;4.35;;;2.72;;
25153;SDS011;47555;51.038;6.280;2023-07-22T12:09:55;2.55;;;2.22;;
25153;SDS011;47555;51.038;6.280;2023-07-22T12:12:31;3.42;;;2.35;;
25153;SDS011;47555;51.038;6.280;2023-07-22T12:17:44;3.38;;;2.60;;
25153;SDS011;47555;51.038;6.280;2023-07-22T12:20:11;3.33;;;2.67;;
25153;SDS011;47555;51.038;6.280;2023-07-22T12:22:37;3.75;;;2.75;;
25153;SDS011;47555;51.038;6.280;2023-07-22T12:25:03;5.10;;;2.53;;
25153;SDS011;47555;51.038;6.280;2023-07-22T12:27:29;3.40;;;2.58;;
25153;SDS011;47555;51.038;6.280;2023-07-22T12:29:54;3.58;;;3.00;;
25153;SDS011;47555;51.038;6.280;2023-07-22T12:32:20;3.15;;;2.70;;
25153;SDS011;47555;51.038;6.280;2023-07-22T12:34:45;3.42;;;2.83;;
25153;SDS011;47555;51.038;6.280;2023-07-22T12:37:11;3.83;;;2.53;;
25153;SDS011;47555;51.038;6.280;2023-07-22T12:39:36;4.47;;;2.72;;
25153;SDS011;47555;51.038;6.280;2023-07-22T12:42:02;4.20;;;3.10;;
25153;SDS011;47555;51.038;6.280;2023-07-22T12:44:27;4.32;;;2.90;;
25153;SDS011;47555;51.038;6.280;2023-07-22T12:46:53;4.45;;;3.30;;
25153;SDS011;47555;51.038;6.280;2023-07-22T12:49:19;4.35;;;2.80;;
25153;SDS011;47555;51.038;6.280;2023-07-22T12:51:44;4.10;;;2.95;;
25153;SDS011;47555;51.038;6.280;2023-07-22T12:54:10;3.05;;;2.42;;
25153;SDS011;47555;51.038;6.280;2023-07-22T12:56:35;4.88;;;2.92;;
25153;SDS011;47555;51.038;6.280;2023-07-22T12:59:01;3.50;;;3.17;;
25153;SDS011;47555;51.038;6.280;2023-07-22T13:01:27;3.38;;;2.63;;
25153;SDS011;47555;51.038;6.280;2023-07-22T13:03:52;4.20;;;2.67;;
25153;SDS011;47555;51.038;6.280;2023-07-22T13:06:18;4.30;;;2.55;;
25153;SDS011;47555;51.038;6.280;2023-07-22T13:08:43;3.70;;;2.70;;
25153;SDS011;47555;51.038;6.280;2023-07-22T13:11:09;4.43;;;2.65;;
25153;SDS011;47555;51.038;6.280;2023-07-22T13:13:34;4.80;;;2.72;;
25153;SDS011;47555;51.038;6.280;2023-07-22T13:16:00;4.03;;;2.85;;
25153;SDS011;47555;51.038;6.280;2023-07-22T13:18:25;5.38;;;2.97;;
25153;SDS011;47555;51.038;6.280;2023-07-22T13:20:51;3.08;;;2.65;;
25153;SDS011;47555;51.038;6.280;2023-07-22T13:23:16;3.80;;;2.80;;
25153;SDS011;47555;51.038;6.280;2023-07-22T13:25:42;3.13;;;2.67;;
25153;SDS011;47555;51.038;6.280;2023-07-22T13:28:07;4.40;;;3.10;;
25153;SDS011;47555;51.038;6.280;2023-07-22T13:30:36;3.47;;;2.70;;
25153;SDS011;47555;51.038;6.280;2023-07-22T13:33:01;4.18;;;2.75;;
25153;SDS011;47555;51.038;6.280;2023-07-22T13:35:27;5.53;;;2.75;;
25153;SDS011;47555;51.038;6.280;2023-07-22T13:37:53;3.55;;;2.65;;
25153;SDS011;47555;51.038;6.280;2023-07-22T13:40:18;3.97;;;2.78;;
25153;SDS011;47555;51.038;6.280;2023-07-22T13:42:44;4.18;;;2.53;;
25153;SDS011;47555;51.038;6.280;2023-07-22T13:45:09;3.88;;;2.50;;
25153;SDS011;47555;51.038;6.280;2023-07-22T13:47:35;3.85;;;2.67;;
25153;SDS011;47555;51.038;6.280;2023-07-22T13:50:01;3.67;;;2.40;;
25153;SDS011;47555;51.038;6.280;2023-07-22T13:52:26;4.00;;;2.65;;
25153;SDS011;47555;51.038;6.280;2023-07-22T13:54:54;3.38;;;2.60;;
25153;SDS011;47555;51.038;6.280;2023-07-22T13:57:20;3.35;;;2.20;;
25153;SDS011;47555;51.038;6.280;2023-07-22T13:59:48;3.10;;;2.20;;
25153;SDS011;47555;51.038;6.280;2023-07-22T14:02:14;5.63;;;2.85;;
25153;SDS011;47555;51.038;6.280;2023-07-22T14:04:39;4.10;;;2.55;;
25153;SDS011;47555;51.038;6.280;2023-07-22T14:07:05;3.63;;;2.28;;
25153;SDS011;47555;51.038;6.280;2023-07-22T14:09:31;3.42;;;2.20;;
25153;SDS011;47555;51.038;6.280;2023-07-22T14:11:56;3.60;;;2.25;;
25153;SDS011;47555;51.038;6.280;2023-07-22T14:14:22;4.68;;;2.30;;
25153;SDS011;47555;51.038;6.280;2023-07-22T14:16:53;5.07;;;2.10;;
25153;SDS011;47555;51.038;6.280;2023-07-22T14:19:20;2.67;;;2.13;;
25153;SDS011;47555;51.038;6.280;2023-07-22T14:21:45;5.72;;;2.35;;
25153;SDS011;47555;51.038;6.280;2023-07-22T14:24:11;2.83;;;2.10;;
25153;SDS011;47555;51.038;6.280;2023-07-22T14:26:36;2.65;;;1.80;;
25153;SDS011;47555;51.038;6.280;2023-07-22T14:29:02;2.13;;;1.80;;
25153;SDS011;47555;51.038;6.280;2023-07-22T14:31:27;3.90;;;2.03;;
25153;SDS011;47555;51.038;6.280;2023-07-22T14:33:53;3.45;;;2.35;;
25153;SDS011;47555;51.038;6.280;2023-07-22T14:36:18;3.42;;;1.88;;
25153;SDS011;47555;51.038;6.280;2023-07-22T14:38:44;4.15;;;2.00;;
25153;SDS011;47555;51.038;6.280;2023-07-22T14:41:09;3.53;;;2.10;;
25153;SDS011;47555;51.038;6.280;2023-07-22T14:43:36;3.75;;;1.80;;
25153;SDS011;47555;51.038;6.280;2023-07-22T14:46:01;5.03;;;2.13;;
25153;SDS011;47555;51.038;6.280;2023-07-22T14:48:27;3.78;;;1.95;;
25153;SDS011;47555;51.038;6.280;2023-07-22T14:50:52;2.20;;;1.90;;
25153;SDS011;47555;51.038;6.280;2023-07-22T14:53:18;2.22;;;1.80;;